sensor_id;sensor_type;location;lat;lon;timestamp;temperature;humidity
76613;DHT22;65507;48.454;-2.058;2023-05-07T00:02:21;16.00;80.30
76613;DHT22;65507;48.454;-2.058;2023-05-07T00:04:48;16.10;79.40
76613;DHT22;65507;48.454;-2.058;2023-05-07T00:07:14;16.10;79.40
76613;DHT22;65507;48.454;-2.058;2023-05-07T00:09:40;16.10;79.40
76613;DHT22;65507;48.454;-2.058;2023-05-07T00:12:06;16.10;79.40
76613;DHT22;65507;48.454;-2.058;2023-05-07T00:14:31;16.10;79.50
76613;DHT22;65507;48.454;-2.058;2023-05-07T00:16:57;16.10;79.70
76613;DHT22;65507;48.454;-2.058;2023-05-07T00:19:23;16.10;79.80
76613;DHT22;65507;48.454;-2.058;2023-05-07T00:21:49;16.10;79.80
76613;DHT22;65507;48.454;-2.058;2023-05-07T00:24:14;16.10;79.90
76613;DHT22;65507;48.454;-2.058;2023-05-07T00:26:40;16.10;79.80
76613;DHT22;65507;48.454;-2.058;2023-05-07T00:29:06;16.20;79.80
76613;DHT22;65507;48.454;-2.058;2023-05-07T00:31:31;16.20;79.70
76613;DHT22;65507;48.454;-2.058;2023-05-07T00:33:57;16.30;79.70
76613;DHT22;65507;48.454;-2.058;2023-05-07T00:36:22;16.30;79.60
76613;DHT22;65507;48.454;-2.058;2023-05-07T00:38:48;16.30;79.70
76613;DHT22;65507;48.454;-2.058;2023-05-07T00:41:14;16.30;79.80
76613;DHT22;65507;48.454;-2.058;2023-05-07T00:43:40;16.30;79.80
76613;DHT22;65507;48.454;-2.058;2023-05-07T00:46:06;16.30;80.00
76613;DHT22;65507;48.454;-2.058;2023-05-07T00:48:32;16.30;79.90
76613;DHT22;65507;48.454;-2.058;2023-05-07T00:50:57;16.20;80.00
76613;DHT22;65507;48.454;-2.058;2023-05-07T00:53:23;16.30;81.10
76613;DHT22;65507;48.454;-2.058;2023-05-07T00:55:49;16.20;80.10
76613;DHT22;65507;48.454;-2.058;2023-05-07T00:58:15;16.30;80.20
76613;DHT22;65507;48.454;-2.058;2023-05-07T01:00:41;16.30;80.10
76613;DHT22;65507;48.454;-2.058;2023-05-07T01:03:06;16.30;80.10
76613;DHT22;65507;48.454;-2.058;2023-05-07T01:05:32;16.30;80.10
76613;DHT22;65507;48.454;-2.058;2023-05-07T01:07:58;16.30;80.20
76613;DHT22;65507;48.454;-2.058;2023-05-07T01:10:25;16.30;80.30
76613;DHT22;65507;48.454;-2.058;2023-05-07T01:12:51;16.30;80.30
76613;DHT22;65507;48.454;-2.058;2023-05-07T01:15:18;16.30;80.40
76613;DHT22;65507;48.454;-2.058;2023-05-07T01:17:44;16.30;80.30
76613;DHT22;65507;48.454;-2.058;2023-05-07T01:20:10;16.30;80.40
76613;DHT22;65507;48.454;-2.058;2023-05-07T01:22:37;16.30;80.40
76613;DHT22;65507;48.454;-2.058;2023-05-07T01:25:06;16.30;80.50
76613;DHT22;65507;48.454;-2.058;2023-05-07T01:27:33;16.30;80.60
76613;DHT22;65507;48.454;-2.058;2023-05-07T01:30:00;16.30;80.60
76613;DHT22;65507;48.454;-2.058;2023-05-07T01:32:32;16.20;80.60
76613;DHT22;65507;48.454;-2.058;2023-05-07T01:35:00;16.20;80.70
76613;DHT22;65507;48.454;-2.058;2023-05-07T01:37:26;16.20;80.60
76613;DHT22;65507;48.454;-2.058;2023-05-07T01:39:52;16.20;80.70
76613;DHT22;65507;48.454;-2.058;2023-05-07T01:42:19;16.10;80.80
76613;DHT22;65507;48.454;-2.058;2023-05-07T01:44:45;16.10;80.90
76613;DHT22;65507;48.454;-2.058;2023-05-07T01:47:12;16.10;81.00
76613;DHT22;65507;48.454;-2.058;2023-05-07T01:49:39;16.10;81.00
76613;DHT22;65507;48.454;-2.058;2023-05-07T01:52:10;16.10;81.20
76613;DHT22;65507;48.454;-2.058;2023-05-07T01:54:36;16.10;81.20
76613;DHT22;65507;48.454;-2.058;2023-05-07T01:57:02;16.10;81.10
76613;DHT22;65507;48.454;-2.058;2023-05-07T01:59:28;16.10;81.10
76613;DHT22;65507;48.454;-2.058;2023-05-07T02:01:54;16.10;81.10
76613;DHT22;65507;48.454;-2.058;2023-05-07T02:04:19;16.10;81.10
76613;DHT22;65507;48.454;-2.058;2023-05-07T02:06:45;16.10;81.10
76613;DHT22;65507;48.454;-2.058;2023-05-07T02:09:11;16.10;81.10
76613;DHT22;65507;48.454;-2.058;2023-05-07T02:11:37;16.10;81.20
76613;DHT22;65507;48.454;-2.058;2023-05-07T02:14:03;16.10;81.30
76613;DHT22;65507;48.454;-2.058;2023-05-07T02:16:28;16.10;81.40
76613;DHT22;65507;48.454;-2.058;2023-05-07T02:18:54;16.10;81.40
76613;DHT22;65507;48.454;-2.058;2023-05-07T02:21:20;16.10;81.40
76613;DHT22;65507;48.454;-2.058;2023-05-07T02:23:46;16.10;81.40
76613;DHT22;65507;48.454;-2.058;2023-05-07T02:26:11;16.10;81.50
76613;DHT22;65507;48.454;-2.058;2023-05-07T02:28:37;16.10;81.60
76613;DHT22;65507;48.454;-2.058;2023-05-07T02:31:05;16.10;81.70
76613;DHT22;65507;48.454;-2.058;2023-05-07T02:33:31;16.10;81.70
76613;DHT22;65507;48.454;-2.058;2023-05-07T02:35:59;16.00;81.60
76613;DHT22;65507;48.454;-2.058;2023-05-07T02:38:30;16.00;81.70
76613;DHT22;65507;48.454;-2.058;2023-05-07T02:40:55;16.00;81.80
76613;DHT22;65507;48.454;-2.058;2023-05-07T02:43:21;16.00;81.90
76613;DHT22;65507;48.454;-2.058;2023-05-07T02:45:46;16.00;81.90
76613;DHT22;65507;48.454;-2.058;2023-05-07T02:48:12;16.00;82.00
76613;DHT22;65507;48.454;-2.058;2023-05-07T02:50:38;16.00;82.00
76613;DHT22;65507;48.454;-2.058;2023-05-07T02:53:03;16.00;82.10
76613;DHT22;65507;48.454;-2.058;2023-05-07T02:55:30;15.90;82.10
76613;DHT22;65507;48.454;-2.058;2023-05-07T02:57:55;15.90;82.20
76613;DHT22;65507;48.454;-2.058;2023-05-07T03:00:21;15.80;82.40
76613;DHT22;65507;48.454;-2.058;2023-05-07T03:02:47;15.80;82.40
76613;DHT22;65507;48.454;-2.058;2023-05-07T03:05:13;15.70;82.50
76613;DHT22;65507;48.454;-2.058;2023-05-07T03:07:39;15.70;82.60
76613;DHT22;65507;48.454;-2.058;2023-05-07T03:10:06;15.70;82.70
76613;DHT22;65507;48.454;-2.058;2023-05-07T03:12:32;15.60;82.80
76613;DHT22;65507;48.454;-2.058;2023-05-07T03:14:58;15.60;82.90
76613;DHT22;65507;48.454;-2.058;2023-05-07T03:17:23;15.50;82.90
76613;DHT22;65507;48.454;-2.058;2023-05-07T03:19:49;15.50;82.90
76613;DHT22;65507;48.454;-2.058;2023-05-07T03:22:15;15.50;83.00
76613;DHT22;65507;48.454;-2.058;2023-05-07T03:24:40;15.50;83.00
76613;DHT22;65507;48.454;-2.058;2023-05-07T03:27:06;15.40;83.00
76613;DHT22;65507;48.454;-2.058;2023-05-07T03:29:31;15.40;83.10
76613;DHT22;65507;48.454;-2.058;2023-05-07T03:31:57;15.40;83.10
76613;DHT22;65507;48.454;-2.058;2023-05-07T03:34:23;15.40;83.20
76613;DHT22;65507;48.454;-2.058;2023-05-07T03:36:49;15.40;83.20
76613;DHT22;65507;48.454;-2.058;2023-05-07T03:39:15;15.30;83.20
76613;DHT22;65507;48.454;-2.058;2023-05-07T03:41:40;15.30;83.30
76613;DHT22;65507;48.454;-2.058;2023-05-07T03:44:06;15.30;83.30
76613;DHT22;65507;48.454;-2.058;2023-05-07T03:46:33;15.30;83.40
76613;DHT22;65507;48.454;-2.058;2023-05-07T03:48:58;15.30;83.50
76613;DHT22;65507;48.454;-2.058;2023-05-07T03:51:24;15.20;83.50
76613;DHT22;65507;48.454;-2.058;2023-05-07T03:53:51;15.20;83.50
76613;DHT22;65507;48.454;-2.058;2023-05-07T03:56:19;15.30;83.50
76613;DHT22;65507;48.454;-2.058;2023-05-07T03:58:45;15.30;83.50
76613;DHT22;65507;48.454;-2.058;2023-05-07T04:01:11;15.20;83.40
76613;DHT22;65507;48.454;-2.058;2023-05-07T04:03:37;15.20;83.50
76613;DHT22;65507;48.454;-2.058;2023-05-07T04:06:03;15.20;83.50
76613;DHT22;65507;48.454;-2.058;2023-05-07T04:08:28;15.20;83.60
76613;DHT22;65507;48.454;-2.058;2023-05-07T04:10:57;15.20;83.60
76613;DHT22;65507;48.454;-2.058;2023-05-07T04:13:24;15.20;83.60
76613;DHT22;65507;48.454;-2.058;2023-05-07T04:15:54;15.20;83.60
76613;DHT22;65507;48.454;-2.058;2023-05-07T04:18:20;15.20;83.60
76613;DHT22;65507;48.454;-2.058;2023-05-07T04:20:47;15.10;83.70
76613;DHT22;65507;48.454;-2.058;2023-05-07T04:23:13;15.10;83.60
76613;DHT22;65507;48.454;-2.058;2023-05-07T04:25:39;15.10;83.80
76613;DHT22;65507;48.454;-2.058;2023-05-07T04:28:04;15.00;83.90
76613;DHT22;65507;48.454;-2.058;2023-05-07T04:30:30;15.10;84.00
76613;DHT22;65507;48.454;-2.058;2023-05-07T04:32:55;15.00;84.00
76613;DHT22;65507;48.454;-2.058;2023-05-07T04:35:22;15.00;84.10
76613;DHT22;65507;48.454;-2.058;2023-05-07T04:37:48;15.00;85.00
76613;DHT22;65507;48.454;-2.058;2023-05-07T04:40:13;14.90;84.00
76613;DHT22;65507;48.454;-2.058;2023-05-07T04:42:39;14.90;84.10
76613;DHT22;65507;48.454;-2.058;2023-05-07T04:45:05;14.90;84.20
76613;DHT22;65507;48.454;-2.058;2023-05-07T04:47:31;14.90;84.20
76613;DHT22;65507;48.454;-2.058;2023-05-07T04:49:58;14.80;84.40
76613;DHT22;65507;48.454;-2.058;2023-05-07T04:52:23;14.70;84.60
76613;DHT22;65507;48.454;-2.058;2023-05-07T04:54:49;14.60;84.80
76613;DHT22;65507;48.454;-2.058;2023-05-07T04:57:14;14.60;84.80
76613;DHT22;65507;48.454;-2.058;2023-05-07T04:59:42;14.50;84.90
76613;DHT22;65507;48.454;-2.058;2023-05-07T05:02:07;14.40;85.00
76613;DHT22;65507;48.454;-2.058;2023-05-07T05:04:33;14.40;85.10
76613;DHT22;65507;48.454;-2.058;2023-05-07T05:06:59;14.40;85.10
76613;DHT22;65507;48.454;-2.058;2023-05-07T05:09:24;14.40;85.10
76613;DHT22;65507;48.454;-2.058;2023-05-07T05:11:50;14.40;85.10
76613;DHT22;65507;48.454;-2.058;2023-05-07T05:14:16;14.40;85.20
76613;DHT22;65507;48.454;-2.058;2023-05-07T05:16:45;14.30;85.10
76613;DHT22;65507;48.454;-2.058;2023-05-07T05:19:10;14.30;85.30
76613;DHT22;65507;48.454;-2.058;2023-05-07T05:21:36;14.30;85.30
76613;DHT22;65507;48.454;-2.058;2023-05-07T05:24:01;14.20;85.30
76613;DHT22;65507;48.454;-2.058;2023-05-07T05:26:27;14.30;85.20
76613;DHT22;65507;48.454;-2.058;2023-05-07T05:28:53;14.40;85.20
76613;DHT22;65507;48.454;-2.058;2023-05-07T05:31:18;14.40;85.10
76613;DHT22;65507;48.454;-2.058;2023-05-07T05:33:44;14.40;85.10
76613;DHT22;65507;48.454;-2.058;2023-05-07T05:36:10;14.40;85.20
76613;DHT22;65507;48.454;-2.058;2023-05-07T05:38:37;14.40;85.10
76613;DHT22;65507;48.454;-2.058;2023-05-07T05:41:03;14.40;85.10
76613;DHT22;65507;48.454;-2.058;2023-05-07T05:43:28;14.50;85.10
76613;DHT22;65507;48.454;-2.058;2023-05-07T05:45:56;14.50;85.00
76613;DHT22;65507;48.454;-2.058;2023-05-07T05:48:22;14.50;84.90
76613;DHT22;65507;48.454;-2.058;2023-05-07T05:50:48;14.60;84.90
76613;DHT22;65507;48.454;-2.058;2023-05-07T05:53:14;14.60;84.60
76613;DHT22;65507;48.454;-2.058;2023-05-07T05:55:39;14.70;84.50
76613;DHT22;65507;48.454;-2.058;2023-05-07T05:58:05;14.70;84.50
76613;DHT22;65507;48.454;-2.058;2023-05-07T06:00:31;14.70;84.40
76613;DHT22;65507;48.454;-2.058;2023-05-07T06:02:57;14.70;84.40
76613;DHT22;65507;48.454;-2.058;2023-05-07T06:05:23;14.70;84.40
76613;DHT22;65507;48.454;-2.058;2023-05-07T06:07:48;14.70;84.40
76613;DHT22;65507;48.454;-2.058;2023-05-07T06:10:14;14.70;84.40
76613;DHT22;65507;48.454;-2.058;2023-05-07T06:12:40;14.60;84.30
76613;DHT22;65507;48.454;-2.058;2023-05-07T06:15:06;14.60;84.40
76613;DHT22;65507;48.454;-2.058;2023-05-07T06:17:32;14.60;84.40
76613;DHT22;65507;48.454;-2.058;2023-05-07T06:19:57;14.60;84.30
76613;DHT22;65507;48.454;-2.058;2023-05-07T06:22:23;14.60;84.30
76613;DHT22;65507;48.454;-2.058;2023-05-07T06:24:48;14.60;85.10
76613;DHT22;65507;48.454;-2.058;2023-05-07T06:27:14;14.60;84.20
76613;DHT22;65507;48.454;-2.058;2023-05-07T06:29:40;14.60;84.10
76613;DHT22;65507;48.454;-2.058;2023-05-07T06:32:12;14.70;84.20
76613;DHT22;65507;48.454;-2.058;2023-05-07T06:34:39;14.60;84.00
76613;DHT22;65507;48.454;-2.058;2023-05-07T06:37:05;14.60;84.00
76613;DHT22;65507;48.454;-2.058;2023-05-07T06:39:31;14.60;84.10
76613;DHT22;65507;48.454;-2.058;2023-05-07T06:41:57;14.50;84.10
76613;DHT22;65507;48.454;-2.058;2023-05-07T06:44:23;14.50;84.10
76613;DHT22;65507;48.454;-2.058;2023-05-07T06:46:48;14.50;84.10
76613;DHT22;65507;48.454;-2.058;2023-05-07T06:49:14;14.60;84.10
76613;DHT22;65507;48.454;-2.058;2023-05-07T06:51:40;14.60;84.00
76613;DHT22;65507;48.454;-2.058;2023-05-07T06:54:06;14.60;83.80
76613;DHT22;65507;48.454;-2.058;2023-05-07T06:56:32;14.60;83.80
76613;DHT22;65507;48.454;-2.058;2023-05-07T06:59:00;14.60;83.90
76613;DHT22;65507;48.454;-2.058;2023-05-07T07:01:25;14.60;84.00
76613;DHT22;65507;48.454;-2.058;2023-05-07T07:03:51;14.60;84.00
76613;DHT22;65507;48.454;-2.058;2023-05-07T07:06:17;14.60;83.90
76613;DHT22;65507;48.454;-2.058;2023-05-07T07:08:43;14.70;83.90
76613;DHT22;65507;48.454;-2.058;2023-05-07T07:11:10;14.70;83.70
76613;DHT22;65507;48.454;-2.058;2023-05-07T07:13:36;14.70;83.70
76613;DHT22;65507;48.454;-2.058;2023-05-07T07:16:02;14.80;83.60
76613;DHT22;65507;48.454;-2.058;2023-05-07T07:18:28;14.80;83.50
76613;DHT22;65507;48.454;-2.058;2023-05-07T07:20:54;14.90;83.30
76613;DHT22;65507;48.454;-2.058;2023-05-07T07:23:20;14.90;83.40
76613;DHT22;65507;48.454;-2.058;2023-05-07T07:25:46;14.90;83.40
76613;DHT22;65507;48.454;-2.058;2023-05-07T07:28:11;14.90;83.40
76613;DHT22;65507;48.454;-2.058;2023-05-07T07:30:37;14.90;83.40
76613;DHT22;65507;48.454;-2.058;2023-05-07T07:33:04;14.90;83.50
76613;DHT22;65507;48.454;-2.058;2023-05-07T07:35:33;14.90;83.50
76613;DHT22;65507;48.454;-2.058;2023-05-07T07:37:59;14.90;83.40
76613;DHT22;65507;48.454;-2.058;2023-05-07T07:40:25;14.90;83.40
76613;DHT22;65507;48.454;-2.058;2023-05-07T07:42:52;15.00;83.40
76613;DHT22;65507;48.454;-2.058;2023-05-07T07:45:18;15.00;83.30
76613;DHT22;65507;48.454;-2.058;2023-05-07T07:47:43;15.00;83.20
76613;DHT22;65507;48.454;-2.058;2023-05-07T07:50:09;15.00;83.20
76613;DHT22;65507;48.454;-2.058;2023-05-07T07:52:35;15.00;83.40
76613;DHT22;65507;48.454;-2.058;2023-05-07T07:55:01;15.00;84.30
76613;DHT22;65507;48.454;-2.058;2023-05-07T07:57:27;15.00;83.30
76613;DHT22;65507;48.454;-2.058;2023-05-07T07:59:52;15.00;83.30
76613;DHT22;65507;48.454;-2.058;2023-05-07T08:02:18;15.00;83.20
76613;DHT22;65507;48.454;-2.058;2023-05-07T08:04:45;15.00;83.10
76613;DHT22;65507;48.454;-2.058;2023-05-07T08:07:11;15.00;83.20
76613;DHT22;65507;48.454;-2.058;2023-05-07T08:09:38;15.00;83.20
76613;DHT22;65507;48.454;-2.058;2023-05-07T08:12:05;15.00;83.10
76613;DHT22;65507;48.454;-2.058;2023-05-07T08:14:31;15.10;83.10
76613;DHT22;65507;48.454;-2.058;2023-05-07T08:16:57;15.10;83.10
76613;DHT22;65507;48.454;-2.058;2023-05-07T08:19:22;15.10;83.10
76613;DHT22;65507;48.454;-2.058;2023-05-07T08:21:48;15.20;82.90
76613;DHT22;65507;48.454;-2.058;2023-05-07T08:24:14;15.30;82.70
76613;DHT22;65507;48.454;-2.058;2023-05-07T08:26:40;15.50;82.30
76613;DHT22;65507;48.454;-2.058;2023-05-07T08:29:07;15.60;81.80
76613;DHT22;65507;48.454;-2.058;2023-05-07T08:31:33;15.80;81.50
76613;DHT22;65507;48.454;-2.058;2023-05-07T08:33:58;16.00;81.30
76613;DHT22;65507;48.454;-2.058;2023-05-07T08:36:25;16.10;81.00
76613;DHT22;65507;48.454;-2.058;2023-05-07T08:38:54;16.10;80.90
76613;DHT22;65507;48.454;-2.058;2023-05-07T08:41:20;16.10;80.90
76613;DHT22;65507;48.454;-2.058;2023-05-07T08:43:49;16.10;80.80
76613;DHT22;65507;48.454;-2.058;2023-05-07T08:46:21;16.20;80.80
76613;DHT22;65507;48.454;-2.058;2023-05-07T08:48:50;16.20;80.60
76613;DHT22;65507;48.454;-2.058;2023-05-07T08:51:18;16.30;80.50
76613;DHT22;65507;48.454;-2.058;2023-05-07T08:53:44;16.30;81.40
76613;DHT22;65507;48.454;-2.058;2023-05-07T08:56:10;16.40;80.40
76613;DHT22;65507;48.454;-2.058;2023-05-07T08:58:36;16.50;80.30
76613;DHT22;65507;48.454;-2.058;2023-05-07T09:01:09;16.50;80.10
76613;DHT22;65507;48.454;-2.058;2023-05-07T09:03:37;16.50;80.10
76613;DHT22;65507;48.454;-2.058;2023-05-07T09:06:03;16.40;80.10
76613;DHT22;65507;48.454;-2.058;2023-05-07T09:08:29;16.50;80.20
76613;DHT22;65507;48.454;-2.058;2023-05-07T09:10:54;16.50;80.10
76613;DHT22;65507;48.454;-2.058;2023-05-07T09:13:20;16.40;80.00
76613;DHT22;65507;48.454;-2.058;2023-05-07T09:15:46;16.30;80.20
76613;DHT22;65507;48.454;-2.058;2023-05-07T09:18:12;16.20;80.50
76613;DHT22;65507;48.454;-2.058;2023-05-07T09:20:39;16.10;80.60
76613;DHT22;65507;48.454;-2.058;2023-05-07T09:23:06;16.00;80.60
76613;DHT22;65507;48.454;-2.058;2023-05-07T09:25:33;16.00;80.60
76613;DHT22;65507;48.454;-2.058;2023-05-07T09:28:00;16.00;80.60
76613;DHT22;65507;48.454;-2.058;2023-05-07T09:30:32;16.00;80.50
76613;DHT22;65507;48.454;-2.058;2023-05-07T09:32:59;16.10;80.30
76613;DHT22;65507;48.454;-2.058;2023-05-07T09:35:26;16.20;79.90
76613;DHT22;65507;48.454;-2.058;2023-05-07T09:37:57;16.30;79.70
76613;DHT22;65507;48.454;-2.058;2023-05-07T09:40:28;16.40;79.50
76613;DHT22;65507;48.454;-2.058;2023-05-07T09:42:54;16.40;79.50
76613;DHT22;65507;48.454;-2.058;2023-05-07T09:45:25;16.50;79.30
76613;DHT22;65507;48.454;-2.058;2023-05-07T09:47:57;16.50;79.00
76613;DHT22;65507;48.454;-2.058;2023-05-07T09:50:37;16.50;78.90
76613;DHT22;65507;48.454;-2.058;2023-05-07T09:53:06;16.50;78.60
76613;DHT22;65507;48.454;-2.058;2023-05-07T09:55:32;16.60;78.70
76613;DHT22;65507;48.454;-2.058;2023-05-07T09:57:58;16.60;78.70
76613;DHT22;65507;48.454;-2.058;2023-05-07T10:00:25;16.60;78.50
76613;DHT22;65507;48.454;-2.058;2023-05-07T10:02:52;16.60;78.40
76613;DHT22;65507;48.454;-2.058;2023-05-07T10:05:19;16.60;78.20
76613;DHT22;65507;48.454;-2.058;2023-05-07T10:07:48;16.50;78.20
76613;DHT22;65507;48.454;-2.058;2023-05-07T10:10:15;16.50;78.20
76613;DHT22;65507;48.454;-2.058;2023-05-07T10:12:41;16.50;78.30
76613;DHT22;65507;48.454;-2.058;2023-05-07T10:15:09;16.40;78.20
76613;DHT22;65507;48.454;-2.058;2023-05-07T10:17:36;16.40;78.20
76613;DHT22;65507;48.454;-2.058;2023-05-07T10:20:03;16.30;78.30
76613;DHT22;65507;48.454;-2.058;2023-05-07T10:22:33;16.30;78.30
76613;DHT22;65507;48.454;-2.058;2023-05-07T10:25:03;16.30;78.20
76613;DHT22;65507;48.454;-2.058;2023-05-07T10:27:31;16.40;77.90
76613;DHT22;65507;48.454;-2.058;2023-05-07T10:32:37;16.50;77.40
76613;DHT22;65507;48.454;-2.058;2023-05-07T10:35:09;16.60;77.30
76613;DHT22;65507;48.454;-2.058;2023-05-07T10:37:35;16.70;77.20
76613;DHT22;65507;48.454;-2.058;2023-05-07T10:40:02;16.70;77.10
76613;DHT22;65507;48.454;-2.058;2023-05-07T10:42:28;16.70;77.00
76613;DHT22;65507;48.454;-2.058;2023-05-07T10:44:53;16.70;76.90
76613;DHT22;65507;48.454;-2.058;2023-05-07T10:47:19;16.70;77.00
76613;DHT22;65507;48.454;-2.058;2023-05-07T10:52:21;16.60;77.30
76613;DHT22;65507;48.454;-2.058;2023-05-07T10:57:44;16.70;76.80
76613;DHT22;65507;48.454;-2.058;2023-05-07T11:05:29;16.80;76.60
76613;DHT22;65507;48.454;-2.058;2023-05-07T11:07:57;16.80;76.60
76613;DHT22;65507;48.454;-2.058;2023-05-07T11:10:22;16.80;76.60
76613;DHT22;65507;48.454;-2.058;2023-05-07T11:12:50;16.80;76.70
76613;DHT22;65507;48.454;-2.058;2023-05-07T11:15:34;16.80;76.60
76613;DHT22;65507;48.454;-2.058;2023-05-07T11:18:00;16.90;76.40
76613;DHT22;65507;48.454;-2.058;2023-05-07T11:26:09;17.00;76.10
76613;DHT22;65507;48.454;-2.058;2023-05-07T11:28:42;17.00;76.20
76613;DHT22;65507;48.454;-2.058;2023-05-07T11:31:09;17.10;76.10
76613;DHT22;65507;48.454;-2.058;2023-05-07T11:33:36;17.20;75.80
76613;DHT22;65507;48.454;-2.058;2023-05-07T11:36:05;17.30;75.70
76613;DHT22;65507;48.454;-2.058;2023-05-07T11:38:37;17.30;75.70
76613;DHT22;65507;48.454;-2.058;2023-05-07T11:41:03;17.20;75.90
76613;DHT22;65507;48.454;-2.058;2023-05-07T11:43:31;17.10;76.10
76613;DHT22;65507;48.454;-2.058;2023-05-07T11:46:09;17.10;76.10
76613;DHT22;65507;48.454;-2.058;2023-05-07T11:48:36;17.10;77.00
76613;DHT22;65507;48.454;-2.058;2023-05-07T11:51:04;17.10;76.10
76613;DHT22;65507;48.454;-2.058;2023-05-07T11:53:38;17.10;76.20
76613;DHT22;65507;48.454;-2.058;2023-05-07T11:56:08;17.20;76.00
76613;DHT22;65507;48.454;-2.058;2023-05-07T11:58:34;17.20;75.80
76613;DHT22;65507;48.454;-2.058;2023-05-07T12:01:00;17.30;75.60
76613;DHT22;65507;48.454;-2.058;2023-05-07T12:03:25;17.40;75.40
76613;DHT22;65507;48.454;-2.058;2023-05-07T12:05:51;17.40;75.30
76613;DHT22;65507;48.454;-2.058;2023-05-07T12:08:18;17.50;75.10
76613;DHT22;65507;48.454;-2.058;2023-05-07T12:10:47;18.20;75.30
76613;DHT22;65507;48.454;-2.058;2023-05-07T12:13:24;17.60;75.00
76613;DHT22;65507;48.454;-2.058;2023-05-07T12:15:57;17.50;75.10
76613;DHT22;65507;48.454;-2.058;2023-05-07T12:18:23;17.40;75.40
76613;DHT22;65507;48.454;-2.058;2023-05-07T12:20:50;17.40;75.40
76613;DHT22;65507;48.454;-2.058;2023-05-07T12:23:16;17.40;75.30
76613;DHT22;65507;48.454;-2.058;2023-05-07T12:25:43;17.30;75.40
76613;DHT22;65507;48.454;-2.058;2023-05-07T12:28:19;17.30;75.20
76613;DHT22;65507;48.454;-2.058;2023-05-07T12:30:49;17.40;75.00
76613;DHT22;65507;48.454;-2.058;2023-05-07T12:33:23;17.60;74.70
76613;DHT22;65507;48.454;-2.058;2023-05-07T12:35:49;17.80;74.20
76613;DHT22;65507;48.454;-2.058;2023-05-07T12:38:16;17.90;73.80
76613;DHT22;65507;48.454;-2.058;2023-05-07T12:40:44;18.10;73.50
76613;DHT22;65507;48.454;-2.058;2023-05-07T12:43:20;18.20;73.20
76613;DHT22;65507;48.454;-2.058;2023-05-07T12:45:50;18.40;72.90
76613;DHT22;65507;48.454;-2.058;2023-05-07T12:48:16;18.50;72.70
76613;DHT22;65507;48.454;-2.058;2023-05-07T12:50:42;18.50;72.60
76613;DHT22;65507;48.454;-2.058;2023-05-07T12:53:10;18.50;72.70
76613;DHT22;65507;48.454;-2.058;2023-05-07T12:55:48;18.50;72.70
76613;DHT22;65507;48.454;-2.058;2023-05-07T12:58:40;18.50;72.60
76613;DHT22;65507;48.454;-2.058;2023-05-07T13:01:07;18.40;72.70
76613;DHT22;65507;48.454;-2.058;2023-05-07T13:03:35;18.20;73.00
76613;DHT22;65507;48.454;-2.058;2023-05-07T13:06:06;18.10;73.40
76613;DHT22;65507;48.454;-2.058;2023-05-07T13:08:35;17.90;73.50
76613;DHT22;65507;48.454;-2.058;2023-05-07T13:11:03;17.90;73.70
76613;DHT22;65507;48.454;-2.058;2023-05-07T13:13:34;18.00;73.50
76613;DHT22;65507;48.454;-2.058;2023-05-07T13:16:01;18.20;72.90
76613;DHT22;65507;48.454;-2.058;2023-05-07T13:18:29;18.40;72.40
76613;DHT22;65507;48.454;-2.058;2023-05-07T13:20:54;18.50;72.10
76613;DHT22;65507;48.454;-2.058;2023-05-07T13:23:20;18.70;71.50
76613;DHT22;65507;48.454;-2.058;2023-05-07T13:25:47;18.80;71.40
76613;DHT22;65507;48.454;-2.058;2023-05-07T13:28:13;18.70;71.50
76613;DHT22;65507;48.454;-2.058;2023-05-07T13:30:39;18.70;71.50
76613;DHT22;65507;48.454;-2.058;2023-05-07T13:33:06;18.70;71.60
76613;DHT22;65507;48.454;-2.058;2023-05-07T13:35:34;18.60;71.50
76613;DHT22;65507;48.454;-2.058;2023-05-07T13:38:00;18.70;71.60
76613;DHT22;65507;48.454;-2.058;2023-05-07T13:40:25;18.70;71.50
76613;DHT22;65507;48.454;-2.058;2023-05-07T13:42:51;18.70;71.50
76613;DHT22;65507;48.454;-2.058;2023-05-07T13:45:18;18.70;71.50
76613;DHT22;65507;48.454;-2.058;2023-05-07T13:47:44;18.70;71.50
76613;DHT22;65507;48.454;-2.058;2023-05-07T13:50:11;18.70;71.50
76613;DHT22;65507;48.454;-2.058;2023-05-07T13:52:42;18.70;71.50
76613;DHT22;65507;48.454;-2.058;2023-05-07T13:55:09;18.80;71.60
76613;DHT22;65507;48.454;-2.058;2023-05-07T13:57:36;18.90;70.90
76613;DHT22;65507;48.454;-2.058;2023-05-07T14:00:03;19.00;70.70
76613;DHT22;65507;48.454;-2.058;2023-05-07T14:02:30;19.00;70.60
76613;DHT22;65507;48.454;-2.058;2023-05-07T14:04:56;19.00;70.50
76613;DHT22;65507;48.454;-2.058;2023-05-07T14:07:21;19.00;70.40
76613;DHT22;65507;48.454;-2.058;2023-05-07T14:09:47;19.00;70.50
76613;DHT22;65507;48.454;-2.058;2023-05-07T14:12:13;19.10;70.40
76613;DHT22;65507;48.454;-2.058;2023-05-07T14:14:38;19.30;70.20
76613;DHT22;65507;48.454;-2.058;2023-05-07T14:17:04;19.40;69.90
76613;DHT22;65507;48.454;-2.058;2023-05-07T14:19:29;19.40;69.90
76613;DHT22;65507;48.454;-2.058;2023-05-07T14:21:55;19.30;69.90
76613;DHT22;65507;48.454;-2.058;2023-05-07T14:24:21;19.10;70.20
76613;DHT22;65507;48.454;-2.058;2023-05-07T14:26:47;19.10;70.30
76613;DHT22;65507;48.454;-2.058;2023-05-07T14:29:13;19.20;70.20
76613;DHT22;65507;48.454;-2.058;2023-05-07T14:31:38;19.10;70.10
76613;DHT22;65507;48.454;-2.058;2023-05-07T14:34:05;19.10;70.50
76613;DHT22;65507;48.454;-2.058;2023-05-07T14:36:30;19.00;70.00
76613;DHT22;65507;48.454;-2.058;2023-05-07T14:38:57;18.90;70.20
76613;DHT22;65507;48.454;-2.058;2023-05-07T14:41:24;18.90;70.20
76613;DHT22;65507;48.454;-2.058;2023-05-07T14:43:50;18.90;70.20
76613;DHT22;65507;48.454;-2.058;2023-05-07T14:46:20;18.90;70.10
76613;DHT22;65507;48.454;-2.058;2023-05-07T14:48:45;18.80;70.20
76613;DHT22;65507;48.454;-2.058;2023-05-07T14:51:12;18.70;70.10
76613;DHT22;65507;48.454;-2.058;2023-05-07T14:53:38;18.80;70.20
76613;DHT22;65507;48.454;-2.058;2023-05-07T14:56:04;18.80;70.00
76613;DHT22;65507;48.454;-2.058;2023-05-07T14:58:30;18.80;70.30
76613;DHT22;65507;48.454;-2.058;2023-05-07T15:00:56;18.80;69.80
76613;DHT22;65507;48.454;-2.058;2023-05-07T15:03:22;18.80;70.00
76613;DHT22;65507;48.454;-2.058;2023-05-07T15:05:48;18.70;70.00
76613;DHT22;65507;48.454;-2.058;2023-05-07T15:08:17;18.70;70.00
76613;DHT22;65507;48.454;-2.058;2023-05-07T15:10:42;18.70;69.90
76613;DHT22;65507;48.454;-2.058;2023-05-07T15:13:10;18.80;70.00
76613;DHT22;65507;48.454;-2.058;2023-05-07T15:15:36;18.60;70.00
76613;DHT22;65507;48.454;-2.058;2023-05-07T15:18:02;18.50;70.30
76613;DHT22;65507;48.454;-2.058;2023-05-07T15:20:28;18.40;70.50
76613;DHT22;65507;48.454;-2.058;2023-05-07T15:22:54;18.40;70.40
76613;DHT22;65507;48.454;-2.058;2023-05-07T15:25:20;18.40;70.40
76613;DHT22;65507;48.454;-2.058;2023-05-07T15:27:46;18.50;70.30
76613;DHT22;65507;48.454;-2.058;2023-05-07T15:30:12;18.60;70.00
76613;DHT22;65507;48.454;-2.058;2023-05-07T15:32:40;18.60;69.90